createdAt,value
2018-08-25T00:00:34.014Z,2.73
2018-08-25T00:03:02.617Z,3.00
2018-08-25T00:05:31.324Z,3.30
2018-08-25T00:07:59.811Z,3.00
2018-08-25T00:10:28.429Z,3.50
2018-08-25T00:12:57.159Z,3.10
2018-08-25T00:15:25.631Z,2.93
2018-08-25T00:17:54.243Z,2.80
2018-08-25T00:20:22.955Z,3.13
2018-08-25T00:22:51.492Z,3.23
2018-08-25T00:25:19.883Z,2.97
2018-08-25T00:27:48.500Z,3.10
2018-08-25T00:30:22.695Z,2.97
2018-08-25T00:32:51.432Z,2.40
2018-08-25T00:35:19.919Z,3.10
2018-08-25T00:37:48.311Z,3.07
2018-08-25T00:40:17.019Z,2.70
2018-08-25T00:42:45.529Z,2.97
2018-08-25T00:45:13.917Z,3.00
2018-08-25T00:47:42.615Z,2.70
2018-08-25T00:50:11.078Z,3.30
2018-08-25T00:52:39.468Z,2.73
2018-08-25T00:55:07.877Z,2.57
2018-08-25T00:57:36.258Z,2.93
2018-08-25T01:00:09.961Z,2.80
2018-08-25T01:02:38.673Z,2.60
2018-08-25T01:05:07.171Z,2.93
2018-08-25T01:07:35.583Z,2.63
2018-08-25T01:10:04.284Z,2.70
2018-08-25T01:12:32.992Z,2.83
2018-08-25T01:15:01.478Z,3.00
2018-08-25T01:17:29.860Z,3.00
2018-08-25T01:19:58.561Z,2.70
2018-08-25T01:22:27.276Z,3.03
2018-08-25T01:24:55.783Z,3.10
2018-08-25T01:27:24.532Z,3.20
2018-08-25T01:29:53.260Z,3.17
2018-08-25T01:32:21.971Z,2.50
2018-08-25T01:34:50.664Z,2.80
2018-08-25T01:37:19.388Z,2.83
2018-08-25T01:39:47.879Z,2.63
2018-08-25T01:42:16.302Z,2.73
2018-08-25T01:44:44.935Z,2.90
2018-08-25T01:47:13.403Z,2.73
2018-08-25T01:49:41.796Z,2.60
2018-08-25T01:52:10.485Z,3.33
2018-08-25T01:54:39.220Z,2.87
2018-08-25T01:57:07.730Z,3.27
2018-08-25T01:59:36.358Z,2.60
2018-08-25T02:02:04.951Z,2.83
2018-08-25T02:04:33.360Z,2.77
2018-08-25T02:07:01.765Z,2.60
2018-08-25T02:09:30.362Z,2.90
2018-08-25T02:11:59.148Z,2.57
2018-08-25T02:14:27.652Z,3.27
2018-08-25T02:16:56.058Z,2.53
2018-08-25T02:19:24.683Z,2.70
2018-08-25T02:21:53.444Z,2.37
2018-08-25T02:24:21.923Z,2.87
2018-08-25T02:26:50.531Z,2.63
2018-08-25T02:29:19.268Z,2.33
2018-08-25T02:31:48.139Z,2.30
2018-08-25T02:34:16.744Z,2.70
2018-08-25T02:36:45.457Z,2.60
2018-08-25T02:39:14.114Z,2.80
2018-08-25T02:41:43.480Z,3.00
2018-08-25T02:44:12.035Z,2.57
2018-08-25T02:46:40.650Z,2.80
2018-08-25T02:49:09.364Z,2.70
2018-08-25T02:51:37.855Z,2.63
2018-08-25T02:54:06.234Z,2.47
2018-08-25T02:56:34.835Z,2.50
2018-08-25T02:59:03.607Z,2.43
2018-08-25T03:01:32.334Z,2.93
2018-08-25T03:04:01.029Z,2.73
2018-08-25T03:06:29.519Z,2.80
2018-08-25T03:08:57.910Z,2.47
2018-08-25T03:11:26.364Z,2.40
2018-08-25T03:13:54.798Z,2.93
2018-08-25T03:16:23.173Z,2.60
2018-08-25T03:18:51.558Z,2.80
2018-08-25T03:21:19.955Z,2.57
2018-08-25T03:23:48.368Z,2.80
2018-08-25T03:26:16.977Z,2.50
2018-08-25T03:28:45.744Z,2.57
2018-08-25T03:31:14.556Z,2.30
2018-08-25T03:33:43.043Z,2.20
2018-08-25T03:36:11.448Z,3.00
2018-08-25T03:38:39.899Z,2.37
2018-08-25T03:41:09.003Z,2.47
2018-08-25T03:43:37.512Z,2.50
2018-08-25T03:46:05.892Z,2.47
2018-08-25T03:48:34.495Z,2.30
2018-08-25T03:51:03.241Z,2.80
2018-08-25T03:53:31.706Z,2.27
2018-08-25T03:56:00.412Z,2.30
2018-08-25T03:58:29.140Z,2.43
2018-08-25T04:00:57.642Z,2.20
2018-08-25T04:03:26.039Z,2.90
2018-08-25T04:05:54.688Z,2.53
2018-08-25T04:08:23.160Z,2.60
2018-08-25T04:10:51.567Z,2.40
2018-08-25T04:13:19.975Z,2.63
2018-08-25T04:15:48.604Z,2.50
2018-08-25T04:18:17.325Z,2.63
2018-08-25T04:20:45.831Z,2.20
2018-08-25T04:23:14.215Z,2.40
2018-08-25T04:25:42.617Z,2.30
2018-08-25T04:28:11.241Z,2.50
2018-08-25T04:30:39.847Z,1.90
2018-08-25T04:33:08.475Z,2.60
2018-08-25T04:35:37.004Z,2.40
2018-08-25T04:38:05.428Z,2.63
2018-08-25T04:40:33.833Z,2.47
2018-08-25T04:43:02.510Z,2.60
2018-08-25T04:45:31.108Z,2.33
2018-08-25T04:47:59.596Z,2.43
2018-08-25T04:50:28.255Z,2.50
2018-08-25T04:52:56.766Z,2.17
2018-08-25T04:55:25.155Z,2.83
2018-08-25T04:57:53.582Z,2.63
2018-08-25T05:00:21.969Z,3.03
2018-08-25T05:02:50.355Z,2.40
2018-08-25T05:05:18.771Z,2.10
2018-08-25T05:07:47.435Z,2.80
2018-08-25T05:10:15.993Z,2.50
2018-08-25T05:12:44.638Z,2.87
2018-08-25T05:15:13.343Z,2.50
2018-08-25T05:17:41.845Z,2.50
2018-08-25T05:20:10.299Z,2.30
2018-08-25T05:22:38.727Z,2.60
2018-08-25T05:25:07.712Z,2.37
2018-08-25T05:27:36.545Z,2.20
2018-08-25T05:30:06.148Z,2.60
2018-08-25T05:32:34.965Z,2.80
2018-08-25T05:35:03.492Z,2.60
2018-08-25T05:37:31.899Z,2.23
2018-08-25T05:40:00.296Z,2.33
2018-08-25T05:42:28.945Z,2.50
2018-08-25T05:44:58.083Z,2.47
2018-08-25T05:47:26.642Z,2.50
2018-08-25T05:49:56.302Z,2.40
2018-08-25T05:52:25.148Z,2.67
2018-08-25T05:54:53.773Z,2.47
2018-08-25T05:57:22.718Z,2.50
2018-08-25T05:59:51.396Z,2.57
2018-08-25T06:02:19.763Z,2.50
2018-08-25T06:04:48.420Z,2.20
2018-08-25T06:07:17.108Z,2.37
2018-08-25T06:09:45.592Z,3.00
2018-08-25T06:12:14.106Z,2.40
2018-08-25T06:14:42.826Z,2.60
2018-08-25T06:17:11.537Z,2.77
2018-08-25T06:19:40.036Z,2.60
2018-08-25T06:22:08.515Z,2.50
2018-08-25T06:24:37.136Z,2.10
2018-08-25T06:27:05.627Z,2.40
2018-08-25T06:29:34.072Z,2.40
2018-08-25T06:32:03.091Z,2.90
2018-08-25T06:34:31.603Z,2.60
2018-08-25T06:36:59.983Z,2.90
2018-08-25T06:39:28.629Z,2.67
2018-08-25T06:41:57.188Z,2.87
2018-08-25T06:44:25.544Z,2.47
2018-08-25T06:46:53.948Z,2.27
2018-08-25T06:49:22.348Z,2.90
2018-08-25T06:51:50.739Z,2.57
2018-08-25T06:54:19.156Z,2.20
2018-08-25T06:56:47.787Z,2.20
2018-08-25T06:59:16.264Z,2.50
2018-08-25T07:01:44.696Z,2.43
2018-08-25T07:04:13.356Z,2.37
2018-08-25T07:06:41.844Z,2.57
2018-08-25T07:09:12.164Z,2.67
2018-08-25T07:11:41.307Z,2.37
2018-08-25T07:14:10.151Z,2.53
2018-08-25T07:16:38.614Z,2.17
2018-08-25T07:19:07.341Z,2.40
2018-08-25T07:21:35.778Z,2.17
2018-08-25T07:24:04.391Z,2.60
2018-08-25T07:26:33.183Z,2.33
2018-08-25T07:29:01.593Z,2.30
2018-08-25T07:31:30.063Z,2.53
2018-08-25T07:33:58.487Z,2.57
2018-08-25T07:36:27.132Z,3.10
2018-08-25T07:38:55.623Z,2.20
2018-08-25T07:41:24.160Z,2.27
2018-08-25T07:43:52.575Z,2.33
2018-08-25T07:46:21.182Z,2.93
2018-08-25T07:48:49.700Z,2.40
2018-08-25T07:51:18.112Z,2.60
2018-08-25T07:53:46.817Z,2.50
2018-08-25T07:56:15.497Z,2.73
2018-08-25T07:58:43.992Z,2.80
2018-08-25T08:01:12.645Z,2.70
2018-08-25T08:03:41.391Z,2.43
2018-08-25T08:06:09.891Z,2.50
2018-08-25T08:08:38.529Z,2.73
2018-08-25T08:11:07.293Z,2.10
2018-08-25T08:13:35.804Z,2.77
2018-08-25T08:16:04.203Z,2.57
2018-08-25T08:18:38.272Z,2.57
2018-08-25T08:21:06.803Z,2.13
2018-08-25T08:23:35.198Z,2.50
2018-08-25T08:26:03.860Z,2.53
2018-08-25T08:28:32.394Z,2.03
2018-08-25T08:31:01.081Z,2.33
2018-08-25T08:33:29.800Z,2.40
2018-08-25T08:35:58.292Z,2.80
2018-08-25T08:38:27.808Z,2.53
2018-08-25T08:40:56.414Z,2.60
2018-08-25T08:43:25.035Z,2.70
2018-08-25T08:45:53.779Z,2.50
2018-08-25T08:48:22.400Z,2.47
2018-08-25T08:50:51.088Z,3.07
2018-08-25T08:53:19.796Z,2.63
2018-08-25T08:55:48.525Z,2.60
2018-08-25T08:58:17.076Z,2.73
2018-08-25T09:00:45.655Z,3.03
2018-08-25T09:03:14.194Z,2.57
2018-08-25T09:05:42.824Z,2.63
2018-08-25T09:08:11.551Z,2.97
2018-08-25T09:10:40.083Z,2.97
2018-08-25T09:13:08.478Z,3.40
2018-08-25T09:15:37.123Z,3.37
2018-08-25T09:18:05.628Z,2.90
2018-08-25T09:20:34.039Z,3.23
2018-08-25T09:23:02.451Z,2.70
2018-08-25T09:25:31.068Z,2.90
2018-08-25T09:27:59.604Z,2.87
2018-08-25T09:30:28.007Z,2.80
2018-08-25T09:32:56.431Z,2.60
2018-08-25T09:35:25.081Z,3.40
2018-08-25T09:37:53.595Z,2.50
2018-08-25T09:40:22.148Z,2.60
2018-08-25T09:42:50.814Z,2.33
2018-08-25T09:45:19.312Z,2.80
2018-08-25T09:47:47.973Z,2.60
2018-08-25T09:50:16.795Z,2.53
2018-08-25T09:52:45.527Z,2.50
2018-08-25T09:55:14.039Z,2.70
2018-08-25T09:57:42.663Z,2.70
2018-08-25T10:00:11.716Z,3.03
2018-08-25T10:02:40.237Z,3.00
2018-08-25T10:05:28.939Z,2.90
2018-08-25T10:07:58.033Z,3.43
2018-08-25T10:10:31.088Z,2.90
2018-08-25T10:13:02.912Z,2.57
2018-08-25T10:15:41.143Z,2.80
2018-08-25T10:18:13.170Z,3.23
2018-08-25T10:20:42.032Z,3.60
2018-08-25T10:23:10.829Z,3.43
2018-08-25T10:25:39.256Z,3.30
2018-08-25T10:28:07.645Z,2.93
2018-08-25T10:30:36.059Z,3.10
2018-08-25T10:33:04.487Z,3.10
2018-08-25T10:35:32.923Z,3.00
2018-08-25T10:38:01.295Z,2.90
2018-08-25T10:40:29.780Z,2.90
2018-08-25T10:42:58.172Z,2.73
2018-08-25T10:45:26.580Z,2.67
2018-08-25T10:47:55.053Z,3.07
2018-08-25T10:50:23.687Z,2.70
2018-08-25T10:52:52.137Z,2.67
2018-08-25T10:55:20.543Z,3.27
2018-08-25T10:57:49.695Z,3.10
2018-08-25T11:00:23.208Z,3.67
2018-08-25T11:02:51.824Z,3.20
2018-08-25T11:05:20.282Z,3.03
2018-08-25T11:07:48.699Z,2.57
2018-08-25T11:10:17.131Z,2.43
2018-08-25T11:12:45.528Z,2.50
2018-08-25T11:15:13.952Z,2.50
2018-08-25T11:17:42.341Z,2.47
2018-08-25T11:20:10.783Z,2.63
2018-08-25T11:22:39.256Z,2.30
2018-08-25T11:25:07.662Z,2.30
2018-08-25T11:27:36.081Z,2.60
2018-08-25T11:30:04.612Z,2.13
2018-08-25T11:32:33.236Z,2.60
2018-08-25T11:35:01.732Z,2.30
2018-08-25T11:37:30.216Z,2.47
2018-08-25T11:39:58.556Z,2.57
2018-08-25T11:42:26.977Z,2.60
2018-08-25T11:44:55.420Z,2.33
2018-08-25T11:47:23.797Z,2.37
2018-08-25T11:49:52.211Z,2.50
2018-08-25T11:52:20.612Z,2.70
2018-08-25T11:54:49.036Z,2.57
2018-08-25T11:57:17.444Z,2.60
2018-08-25T11:59:45.854Z,3.00
2018-08-25T12:02:14.271Z,3.23
2018-08-25T12:04:42.682Z,3.30
2018-08-25T12:07:11.112Z,3.20
2018-08-25T12:09:39.665Z,3.00
2018-08-25T12:12:08.034Z,2.97
2018-08-25T12:14:36.470Z,3.00
2018-08-25T12:17:04.871Z,2.53
2018-08-25T12:19:33.275Z,2.90
2018-08-25T12:22:01.952Z,2.73
2018-08-25T12:24:30.315Z,2.53
2018-08-25T12:27:01.607Z,2.43
2018-08-25T12:29:30.371Z,2.43
2018-08-25T12:31:59.379Z,2.73
2018-08-25T12:34:27.790Z,2.70
2018-08-25T12:36:56.196Z,3.13
2018-08-25T12:39:24.636Z,2.70
2018-08-25T12:41:53.121Z,3.17
2018-08-25T12:44:21.574Z,1.90
2018-08-25T12:46:49.983Z,1.70
2018-08-25T12:49:18.636Z,2.13
2018-08-25T12:51:47.418Z,1.73
2018-08-25T12:54:15.638Z,1.60
2018-08-25T12:56:44.050Z,1.40
2018-08-25T12:59:12.585Z,1.40
2018-08-25T13:01:40.996Z,1.20
2018-08-25T13:04:09.515Z,1.27
2018-08-25T13:06:37.926Z,1.40
2018-08-25T13:09:10.370Z,1.27
2018-08-25T13:11:39.218Z,1.20
2018-08-25T13:14:07.940Z,1.27
2018-08-25T13:16:36.620Z,1.23
2018-08-25T13:19:05.638Z,1.20
2018-08-25T13:21:34.153Z,1.60
2018-08-25T13:24:02.572Z,1.20
2018-08-25T13:26:30.956Z,1.30
2018-08-25T13:28:59.547Z,1.40
2018-08-25T13:31:27.951Z,1.43
2018-08-25T13:33:56.383Z,1.30
2018-08-25T13:36:24.890Z,1.70
2018-08-25T13:38:53.298Z,1.77
2018-08-25T13:41:21.975Z,1.57
2018-08-25T13:43:50.480Z,1.90
2018-08-25T13:46:18.887Z,1.77
2018-08-25T13:48:47.309Z,1.80
2018-08-25T13:51:16.003Z,1.80
2018-08-25T13:53:44.509Z,1.77
2018-08-25T13:56:12.916Z,2.10
2018-08-25T13:58:41.547Z,1.97
2018-08-25T14:01:10.082Z,2.00
2018-08-25T14:03:38.776Z,2.13
2018-08-25T14:06:07.328Z,2.00
2018-08-25T14:08:35.715Z,1.97
2018-08-25T14:11:04.171Z,2.00
2018-08-25T14:13:32.591Z,2.00
2018-08-25T14:16:01.112Z,1.70
2018-08-25T14:18:29.463Z,1.70
2018-08-25T14:20:57.896Z,1.73
2018-08-25T14:23:26.298Z,1.83
2018-08-25T14:25:54.868Z,1.73
2018-08-25T14:28:23.287Z,1.70
2018-08-25T14:30:51.707Z,1.97
2018-08-25T14:33:20.111Z,2.10
2018-08-25T14:35:48.536Z,2.10
2018-08-25T14:38:16.939Z,2.00
2018-08-25T14:40:45.427Z,2.10
2018-08-25T14:43:13.835Z,2.40
2018-08-25T14:45:42.269Z,2.10
2018-08-25T14:48:12.767Z,2.00
2018-08-25T14:50:41.359Z,2.20
2018-08-25T14:53:10.606Z,2.17
2018-08-25T14:55:39.034Z,2.00
2018-08-25T14:58:07.429Z,2.10
2018-08-25T15:00:36.353Z,1.90
2018-08-25T15:03:04.713Z,1.97
2018-08-25T15:05:33.373Z,2.27
2018-08-25T15:08:01.950Z,2.00
2018-08-25T15:10:30.300Z,1.80
2018-08-25T15:12:59.287Z,2.00
2018-08-25T15:15:28.303Z,2.00
2018-08-25T15:17:57.774Z,1.90
2018-08-25T15:20:26.596Z,1.80
2018-08-25T15:22:55.308Z,1.70
2018-08-25T15:25:23.819Z,1.83
2018-08-25T15:27:52.216Z,1.80
2018-08-25T15:30:20.622Z,1.80
2018-08-25T15:32:49.063Z,1.77
2018-08-25T15:35:17.537Z,2.00
2018-08-25T15:37:46.152Z,1.60
2018-08-25T15:40:14.722Z,1.80
2018-08-25T15:42:44.112Z,1.97
2018-08-25T15:45:13.519Z,1.87
2018-08-25T15:47:42.176Z,1.80
2018-08-25T15:50:10.626Z,1.73
2018-08-25T15:52:39.091Z,1.90
2018-08-25T15:55:07.627Z,1.80
2018-08-25T15:57:36.126Z,1.80
2018-08-25T16:00:09.587Z,2.10
2018-08-25T16:02:38.188Z,1.93
2018-08-25T16:05:06.649Z,2.00
2018-08-25T16:07:35.086Z,2.10
2018-08-25T16:10:03.561Z,2.70
2018-08-25T16:12:32.151Z,2.40
2018-08-25T16:15:00.443Z,2.07
2018-08-25T16:17:29.127Z,2.00
2018-08-25T16:19:57.682Z,1.90
2018-08-25T16:22:25.966Z,1.90
2018-08-25T16:24:54.378Z,2.20
2018-08-25T16:27:22.791Z,1.80
2018-08-25T16:29:51.249Z,2.10
2018-08-25T16:32:19.638Z,1.80
2018-08-25T16:34:48.039Z,2.00
2018-08-25T16:37:16.501Z,1.80
2018-08-25T16:39:44.921Z,1.77
2018-08-25T16:42:13.408Z,1.70
2018-08-25T16:44:41.928Z,1.70
2018-08-25T16:47:10.338Z,1.70
2018-08-25T16:49:38.761Z,1.40
2018-08-25T16:52:07.240Z,1.40
2018-08-25T16:54:35.666Z,1.40
2018-08-25T16:57:04.054Z,1.40
2018-08-25T16:59:32.471Z,1.70
2018-08-25T17:02:01.196Z,1.30
2018-08-25T17:04:29.579Z,1.30
2018-08-25T17:06:58.135Z,1.10
2018-08-25T17:09:26.821Z,1.40
2018-08-25T17:11:55.406Z,1.10
2018-08-25T17:14:24.242Z,1.30
2018-08-25T17:16:52.684Z,1.00
2018-08-25T17:19:21.333Z,1.20
2018-08-25T17:21:49.791Z,1.00
2018-08-25T17:24:18.238Z,1.00
2018-08-25T17:26:46.667Z,1.10
2018-08-25T17:29:15.342Z,1.20
2018-08-25T17:31:43.786Z,1.20
2018-08-25T17:34:12.239Z,1.20
2018-08-25T17:36:40.691Z,1.20
2018-08-25T17:39:09.609Z,1.10
2018-08-25T17:41:38.116Z,1.00
2018-08-25T17:44:06.863Z,1.07
2018-08-25T17:46:35.267Z,1.10
2018-08-25T17:49:03.973Z,0.80
2018-08-25T17:51:32.399Z,1.00
2018-08-25T17:54:00.845Z,1.40
2018-08-25T17:56:29.644Z,1.00
2018-08-25T17:58:59.112Z,1.10
2018-08-25T18:01:29.080Z,1.00
2018-08-25T18:03:57.732Z,1.10
2018-08-25T18:06:26.845Z,1.30
2018-08-25T18:08:55.560Z,1.30
2018-08-25T18:11:24.314Z,1.03
2018-08-25T18:13:53.104Z,1.17
2018-08-25T18:16:21.612Z,1.10
2018-08-25T18:18:50.041Z,1.20
2018-08-25T18:21:19.559Z,1.00
2018-08-25T18:26:32.448Z,1.30
2018-08-25T18:29:00.832Z,1.30
2018-08-25T18:31:29.235Z,1.37
2018-08-25T18:33:57.676Z,1.13
2018-08-25T18:36:26.494Z,1.27
2018-08-25T18:38:55.056Z,1.20
2018-08-25T18:41:24.050Z,1.50
2018-08-25T18:43:55.876Z,1.30
2018-08-25T18:46:24.496Z,1.10
2018-08-25T18:48:53.141Z,1.33
2018-08-25T18:51:23.411Z,1.00
2018-08-25T18:53:51.985Z,1.30
2018-08-25T18:56:20.402Z,1.40
2018-08-25T18:58:49.698Z,1.33
2018-08-25T19:01:18.215Z,1.33
2018-08-25T19:03:46.654Z,1.30
2018-08-25T19:06:15.313Z,1.40
2018-08-25T19:08:43.988Z,1.33
2018-08-25T19:11:12.484Z,1.40
2018-08-25T19:13:40.884Z,1.40
2018-08-25T19:16:09.351Z,1.60
2018-08-25T19:18:37.768Z,1.40
2018-08-25T19:21:06.557Z,1.23
2018-08-25T19:23:35.019Z,1.47
2018-08-25T19:26:03.440Z,1.50
2018-08-25T19:28:32.155Z,1.57
2018-08-25T19:31:00.585Z,1.23
2018-08-25T19:33:29.037Z,1.60
2018-08-25T19:35:58.744Z,1.37
2018-08-25T19:38:27.349Z,1.67
2018-08-25T19:40:57.191Z,1.47
2018-08-25T19:43:25.823Z,1.77
2018-08-25T19:45:55.182Z,1.70
2018-08-25T19:48:23.837Z,1.70
2018-08-25T19:50:52.313Z,1.60
2018-08-25T19:53:20.720Z,1.77
2018-08-25T19:55:49.172Z,1.47
2018-08-25T19:58:17.575Z,1.73
2018-08-25T20:00:45.959Z,1.87
2018-08-25T20:03:14.411Z,1.67
2018-08-25T20:05:42.895Z,1.97
2018-08-25T20:08:11.174Z,1.80
2018-08-25T20:10:39.639Z,1.70
2018-08-25T20:13:08.032Z,1.90
2018-08-25T20:15:36.479Z,1.73
2018-08-25T20:18:04.899Z,1.87
2018-08-25T20:20:33.354Z,1.97
2018-08-25T20:23:01.662Z,1.57
2018-08-25T20:25:30.106Z,2.10
2018-08-25T20:27:58.483Z,2.10
2018-08-25T20:30:26.963Z,1.50
2018-08-25T20:32:55.328Z,1.70
2018-08-25T20:35:23.699Z,1.60
2018-08-25T20:37:52.103Z,1.53
2018-08-25T20:40:20.599Z,1.80
2018-08-25T20:42:48.979Z,1.67
2018-08-25T20:45:17.403Z,1.53
2018-08-25T20:47:45.864Z,1.63
2018-08-25T20:50:14.255Z,1.90
2018-08-25T20:52:42.639Z,1.60
2018-08-25T20:55:11.087Z,1.37
2018-08-25T20:57:39.488Z,1.60
2018-08-25T21:00:07.896Z,1.53
2018-08-25T21:02:36.336Z,1.40
2018-08-25T21:05:04.848Z,1.47
2018-08-25T21:07:33.243Z,1.60
2018-08-25T21:10:01.704Z,1.43
2018-08-25T21:12:30.087Z,1.50
2018-08-25T21:14:58.476Z,1.70
2018-08-25T21:17:26.942Z,1.60
2018-08-25T21:19:55.327Z,1.47
2018-08-25T21:22:23.715Z,1.57
2018-08-25T21:24:52.207Z,1.50
2018-08-25T21:27:20.647Z,1.60
2018-08-25T21:29:49.053Z,1.70
2018-08-25T21:32:17.494Z,1.70
2018-08-25T21:34:45.867Z,1.70
2018-08-25T21:37:14.275Z,1.70
2018-08-25T21:39:42.733Z,1.73
2018-08-25T21:42:11.140Z,1.80
2018-08-25T21:44:39.527Z,1.90
2018-08-25T21:47:07.945Z,1.80
2018-08-25T21:49:36.340Z,1.97
2018-08-25T21:52:04.723Z,1.97
2018-08-25T21:54:33.137Z,1.90
2018-08-25T21:57:01.740Z,2.33
2018-08-25T21:59:30.221Z,2.00
2018-08-25T22:01:59.258Z,2.20
2018-08-25T22:04:28.512Z,2.17
2018-08-25T22:06:57.295Z,2.27
2018-08-25T22:09:25.707Z,2.13
2018-08-25T22:11:54.295Z,1.80
2018-08-25T22:14:22.687Z,2.30
2018-08-25T22:16:51.113Z,2.20
2018-08-25T22:19:19.607Z,2.27
2018-08-25T22:21:47.992Z,2.07
2018-08-25T22:24:16.407Z,2.00
2018-08-25T22:26:44.836Z,1.80
2018-08-25T22:29:13.231Z,1.97
2018-08-25T22:31:41.635Z,1.70
2018-08-25T22:34:10.015Z,2.30
2018-08-25T22:36:38.406Z,1.80
2018-08-25T22:39:07.307Z,1.90
2018-08-25T22:41:35.696Z,1.93
2018-08-25T22:44:04.092Z,1.83
2018-08-25T22:46:32.498Z,2.00
2018-08-25T22:49:00.883Z,1.77
2018-08-25T22:51:29.476Z,2.07
2018-08-25T22:53:57.713Z,2.10
2018-08-25T22:56:26.144Z,2.00
2018-08-25T22:58:54.523Z,2.07
2018-08-25T23:01:23.004Z,2.00
2018-08-25T23:03:51.340Z,1.80
2018-08-25T23:06:19.732Z,1.80
2018-08-25T23:08:48.131Z,2.30
2018-08-25T23:11:16.601Z,2.00
2018-08-25T23:13:44.984Z,1.70
2018-08-25T23:16:13.397Z,2.37
2018-08-25T23:18:41.913Z,2.00
2018-08-25T23:21:10.462Z,1.90
2018-08-25T23:23:38.875Z,1.87
2018-08-25T23:26:07.271Z,2.13
2018-08-25T23:28:35.662Z,2.90
2018-08-25T23:31:04.085Z,2.00
2018-08-25T23:33:32.462Z,2.10
2018-08-25T23:36:00.863Z,1.90
2018-08-25T23:38:29.287Z,2.23
2018-08-25T23:40:57.705Z,1.80
2018-08-25T23:43:26.108Z,2.13
2018-08-25T23:45:54.523Z,1.80
2018-08-25T23:48:22.915Z,2.03
2018-08-25T23:50:51.408Z,1.93
2018-08-25T23:53:19.823Z,1.93
2018-08-25T23:55:48.227Z,1.80
2018-08-25T23:58:16.611Z,2.00
